createdAt,value
2019-05-14T00:01:37.829Z,81.89
2019-05-14T00:04:04.074Z,80.95
2019-05-14T00:06:31.163Z,82.29
2019-05-14T00:08:57.573Z,81.03
2019-05-14T00:11:23.803Z,80.82
2019-05-14T00:13:52.022Z,80.84
2019-05-14T00:16:18.174Z,80.76
2019-05-14T00:18:44.412Z,80.75
2019-05-14T00:21:12.209Z,80.74
2019-05-14T00:23:38.741Z,81.29
2019-05-14T00:26:04.977Z,82.19
2019-05-14T00:28:31.729Z,80.89
2019-05-14T00:30:58.268Z,80.90
2019-05-14T00:33:24.526Z,80.85
2019-05-14T00:35:51.484Z,81.21
2019-05-14T00:38:18.008Z,81.69
2019-05-14T00:40:44.256Z,80.77
2019-05-14T00:43:11.388Z,81.81
2019-05-14T00:45:37.726Z,81.78
2019-05-14T00:48:03.957Z,81.79
2019-05-14T00:50:31.707Z,81.86
2019-05-14T00:52:58.144Z,82.74
2019-05-14T00:55:24.375Z,82.12
2019-05-14T00:57:52.142Z,82.21
2019-05-14T01:00:18.593Z,82.05
2019-05-14T01:02:44.824Z,82.56
2019-05-14T01:05:12.449Z,82.48
2019-05-14T01:07:38.910Z,82.75
2019-05-14T01:10:06.466Z,82.50
2019-05-14T01:12:32.692Z,82.49
2019-05-14T01:15:09.623Z,83.78
2019-05-14T01:17:27.085Z,83.77
2019-05-14T01:19:53.331Z,83.59
2019-05-14T01:22:21.300Z,83.73
2019-05-14T01:24:47.714Z,83.22
2019-05-14T01:27:13.947Z,84.50
2019-05-14T01:29:42.347Z,83.95
2019-05-14T01:32:08.323Z,84.60
2019-05-14T01:34:34.592Z,84.11
2019-05-14T01:37:02.425Z,83.92
2019-05-14T01:39:28.891Z,84.06
2019-05-14T01:41:55.135Z,83.97
2019-05-14T01:44:21.510Z,83.43
2019-05-14T01:46:47.752Z,83.33
2019-05-14T01:49:13.990Z,84.40
2019-05-14T01:51:42.414Z,83.73
2019-05-14T01:54:08.348Z,84.20
2019-05-14T01:56:34.587Z,83.63
2019-05-14T01:59:01.709Z,83.72
2019-05-14T02:01:28.264Z,84.00
2019-05-14T02:03:54.493Z,84.20
2019-05-14T02:06:21.245Z,83.77
2019-05-14T02:08:47.779Z,84.40
2019-05-14T02:11:14.031Z,84.36
2019-05-14T02:13:41.427Z,84.37
2019-05-14T02:16:07.962Z,84.34
2019-05-14T02:18:34.179Z,83.95
2019-05-14T02:21:01.601Z,84.85
2019-05-14T02:23:28.157Z,84.96
2019-05-14T02:25:54.385Z,84.54
2019-05-14T02:28:22.128Z,84.36
2019-05-14T02:30:57.696Z,84.21
2019-05-14T02:33:19.181Z,84.62
2019-05-14T02:35:44.879Z,84.42
2019-05-14T02:38:11.131Z,84.37
2019-05-14T02:40:40.421Z,85.11
2019-05-14T02:43:05.928Z,85.03
2019-05-14T02:45:32.466Z,84.32
2019-05-14T02:48:00.444Z,83.71
2019-05-14T02:50:29.510Z,83.60
2019-05-14T02:52:54.999Z,83.63
2019-05-14T02:55:21.235Z,83.60
2019-05-14T02:57:50.179Z,83.30
2019-05-14T03:00:19.099Z,83.01
2019-05-14T03:02:44.160Z,83.43
2019-05-14T03:05:10.790Z,82.80
2019-05-14T03:07:39.281Z,82.77
2019-05-14T03:10:05.672Z,82.65
2019-05-14T03:12:31.911Z,82.99
2019-05-14T03:14:58.874Z,82.29
2019-05-14T03:17:25.495Z,82.50
2019-05-14T03:19:51.764Z,81.87
2019-05-14T03:22:26.326Z,81.82
2019-05-14T03:24:46.177Z,82.08
2019-05-14T03:27:12.408Z,82.25
2019-05-14T03:29:39.853Z,82.09
2019-05-14T03:32:11.970Z,81.43
2019-05-14T03:34:34.986Z,81.67
2019-05-14T03:37:03.136Z,81.88
2019-05-14T03:39:29.760Z,81.56
2019-05-14T03:41:58.733Z,81.39
2019-05-14T03:44:24.259Z,80.87
2019-05-14T03:46:55.278Z,80.21
2019-05-14T03:49:19.919Z,80.27
2019-05-14T03:51:49.425Z,80.05
2019-05-14T03:54:14.513Z,80.10
2019-05-14T03:56:40.760Z,80.32
2019-05-14T03:59:09.553Z,79.94
2019-05-14T04:01:35.145Z,78.85
2019-05-14T04:04:01.472Z,78.55
2019-05-14T04:06:30.141Z,77.85
2019-05-14T04:09:00.538Z,77.37
2019-05-14T04:11:29.437Z,76.69
2019-05-14T04:14:00.136Z,74.44
2019-05-14T04:16:29.250Z,73.93
2019-05-14T04:18:59.563Z,72.48
2019-05-14T04:21:29.882Z,72.11
2019-05-14T04:23:59.428Z,70.48
2019-05-14T04:26:30.209Z,68.29
2019-05-14T04:29:00.416Z,68.95
2019-05-14T04:31:30.063Z,68.06
2019-05-14T04:33:59.166Z,64.37
2019-05-14T04:36:25.644Z,65.78
2019-05-14T04:38:55.307Z,65.34
2019-05-14T04:41:20.044Z,64.25
2019-05-14T04:43:49.954Z,63.61
2019-05-14T04:46:19.480Z,61.35
2019-05-14T04:48:44.484Z,61.60
2019-05-14T04:51:10.827Z,60.77
2019-05-14T04:53:39.304Z,60.54
2019-05-14T04:56:05.286Z,59.86
2019-05-14T04:58:31.547Z,58.40
2019-05-14T05:01:00.597Z,58.13
2019-05-14T05:03:25.947Z,57.71
2019-05-14T05:05:52.175Z,56.88
2019-05-14T05:08:19.926Z,55.59
2019-05-14T05:10:49.178Z,55.29
2019-05-14T05:13:14.508Z,55.26
2019-05-14T05:15:40.740Z,54.22
2019-05-14T05:18:09.511Z,52.50
2019-05-14T05:20:35.117Z,51.93
2019-05-14T05:23:01.460Z,52.02
2019-05-14T05:25:29.206Z,51.17
2019-05-14T05:27:56.503Z,50.22
2019-05-14T05:30:23.571Z,49.63
2019-05-14T05:32:49.802Z,49.60
2019-05-14T05:35:18.453Z,48.69
2019-05-14T05:37:44.204Z,47.91
2019-05-14T05:40:10.549Z,47.94
2019-05-14T05:42:38.578Z,47.24
2019-05-14T05:45:07.983Z,47.22
2019-05-14T05:47:33.781Z,41.90
2019-05-14T05:50:00.031Z,46.26
2019-05-14T05:52:28.220Z,45.51
2019-05-14T05:54:54.400Z,45.50
2019-05-14T05:57:20.635Z,45.16
2019-05-14T05:59:48.537Z,44.65
2019-05-14T06:02:15.124Z,42.04
2019-05-14T06:04:41.374Z,44.06
2019-05-14T06:07:08.861Z,44.31
2019-05-14T06:09:35.354Z,40.33
2019-05-14T06:12:01.606Z,43.81
2019-05-14T06:14:29.133Z,42.32
2019-05-14T06:16:55.589Z,43.52
2019-05-14T06:19:21.820Z,43.63
2019-05-14T06:21:48.965Z,41.31
2019-05-14T06:24:15.499Z,41.31
2019-05-14T06:26:41.743Z,41.01
2019-05-14T06:29:08.609Z,40.77
2019-05-14T06:31:35.051Z,41.01
2019-05-14T06:34:01.323Z,38.32
2019-05-14T06:36:29.063Z,38.32
2019-05-14T06:38:55.595Z,38.14
2019-05-14T06:41:21.852Z,37.79
2019-05-14T06:43:48.819Z,36.49
2019-05-14T06:46:15.268Z,38.47
2019-05-14T06:48:41.503Z,38.31
2019-05-14T06:51:08.817Z,40.10
2019-05-14T06:53:35.323Z,39.79
2019-05-14T06:56:01.592Z,40.41
2019-05-14T06:58:29.763Z,40.66
2019-05-14T07:00:58.495Z,40.45
2019-05-14T07:03:24.170Z,39.49
2019-05-14T07:05:50.445Z,38.52
2019-05-14T07:08:18.842Z,37.55
2019-05-14T07:10:44.842Z,35.23
2019-05-14T07:13:11.109Z,35.90
2019-05-14T07:15:38.613Z,34.03
2019-05-14T07:18:05.126Z,33.36
2019-05-14T07:20:31.369Z,34.52
2019-05-14T07:22:58.629Z,35.97
2019-05-14T07:25:25.065Z,34.22
2019-05-14T07:27:51.332Z,35.70
2019-05-14T07:30:19.347Z,36.85
2019-05-14T07:32:48.216Z,35.87
2019-05-14T07:35:14.174Z,33.92
2019-05-14T07:37:40.456Z,33.31
2019-05-14T07:40:08.586Z,33.88
2019-05-14T07:42:35.027Z,33.67
2019-05-14T07:45:01.326Z,34.25
2019-05-14T07:47:29.128Z,33.14
2019-05-14T07:49:55.493Z,33.17
2019-05-14T07:52:21.757Z,31.78
2019-05-14T07:54:48.197Z,34.20
2019-05-14T07:57:14.545Z,33.86
2019-05-14T07:59:40.801Z,33.78
2019-05-14T08:02:09.241Z,32.87
2019-05-14T08:04:35.181Z,32.23
2019-05-14T08:07:01.411Z,33.52
2019-05-14T08:09:28.389Z,34.32
2019-05-14T08:11:54.792Z,35.14
2019-05-14T08:14:21.038Z,35.58
2019-05-14T08:16:48.934Z,35.07
2019-05-14T08:19:25.368Z,36.76
2019-05-14T08:21:43.511Z,35.97
2019-05-14T08:24:09.760Z,36.45
2019-05-14T08:26:38.043Z,34.39
2019-05-14T08:29:08.711Z,33.54
2019-05-14T08:31:35.066Z,32.90
2019-05-14T08:34:04.774Z,34.33
2019-05-14T08:36:29.480Z,33.51
2019-05-14T08:38:58.000Z,33.58
2019-05-14T08:41:23.879Z,33.11
2019-05-14T08:43:50.106Z,34.50
2019-05-14T08:46:18.858Z,33.10
2019-05-14T08:48:44.535Z,35.23
2019-05-14T08:51:10.788Z,35.03
2019-05-14T08:53:38.517Z,35.24
2019-05-14T08:56:05.091Z,34.65
2019-05-14T08:58:31.336Z,32.91
2019-05-14T09:00:58.874Z,33.72
2019-05-14T09:03:25.259Z,33.48
2019-05-14T09:05:51.499Z,34.89
2019-05-14T09:08:19.165Z,35.05
2019-05-14T09:10:45.721Z,33.84
2019-05-14T09:13:11.971Z,34.57
2019-05-14T09:15:38.560Z,34.97
2019-05-14T09:18:04.906Z,35.84
2019-05-14T09:20:31.124Z,33.84
2019-05-14T09:22:59.427Z,31.87
2019-05-14T09:25:25.572Z,28.80
2019-05-14T09:27:51.822Z,30.46
2019-05-14T09:30:18.623Z,32.55
2019-05-14T09:32:45.043Z,33.77
2019-05-14T09:35:11.429Z,35.29
2019-05-14T09:37:39.613Z,34.86
2019-05-14T09:40:08.740Z,34.64
2019-05-14T09:42:34.920Z,35.65
2019-05-14T09:45:01.166Z,32.95
2019-05-14T09:47:28.276Z,34.40
2019-05-14T09:49:54.690Z,34.07
2019-05-14T09:52:20.958Z,32.77
2019-05-14T09:54:49.381Z,33.71
2019-05-14T09:57:15.408Z,34.08
2019-05-14T09:59:41.624Z,35.08
2019-05-14T10:02:09.171Z,34.66
2019-05-14T10:04:35.925Z,34.65
2019-05-14T10:07:02.177Z,33.10
2019-05-14T10:09:29.003Z,33.30
2019-05-14T10:11:55.495Z,31.22
2019-05-14T10:14:21.741Z,31.13
2019-05-14T10:16:49.027Z,30.43
2019-05-14T10:19:15.549Z,32.23
2019-05-14T10:21:41.778Z,31.62
2019-05-14T10:24:09.449Z,31.91
2019-05-14T10:26:36.354Z,30.72
2019-05-14T10:29:02.618Z,32.03
2019-05-14T10:31:29.129Z,32.74
2019-05-14T10:33:55.530Z,31.49
2019-05-14T10:36:21.776Z,33.93
2019-05-14T10:38:48.040Z,32.88
2019-05-14T10:41:14.272Z,34.23
2019-05-14T10:43:40.521Z,34.46
2019-05-14T10:46:09.123Z,33.91
2019-05-14T10:48:34.916Z,32.10
2019-05-14T10:51:03.538Z,31.70
2019-05-14T10:53:29.333Z,32.54
2019-05-14T10:55:55.593Z,30.62
2019-05-14T10:58:21.841Z,30.84
2019-05-14T11:00:49.503Z,30.79
2019-05-14T11:03:18.465Z,28.85
2019-05-14T11:05:44.106Z,30.99
2019-05-14T11:08:11.853Z,32.75
2019-05-14T11:10:42.133Z,33.82
2019-05-14T11:13:08.984Z,33.54
2019-05-14T11:15:34.819Z,32.23
2019-05-14T11:18:01.059Z,31.85
2019-05-14T11:20:31.047Z,33.07
2019-05-14T11:22:58.306Z,32.85
2019-05-14T11:25:23.664Z,33.51
2019-05-14T11:27:49.899Z,33.27
2019-05-14T11:30:19.011Z,33.50
2019-05-14T11:32:44.492Z,33.55
2019-05-14T11:35:13.015Z,33.27
2019-05-14T11:37:41.503Z,31.08
2019-05-14T11:40:08.706Z,31.85
2019-05-14T11:42:35.057Z,33.94
2019-05-14T11:45:01.294Z,34.46
2019-05-14T11:47:27.541Z,34.50
2019-05-14T11:49:53.775Z,34.39
2019-05-14T11:52:20.024Z,33.11
2019-05-14T11:54:49.203Z,34.25
2019-05-14T11:57:14.428Z,35.21
2019-05-14T11:59:40.671Z,35.31
2019-05-14T12:02:09.459Z,35.37
2019-05-14T12:04:35.077Z,35.01
2019-05-14T12:07:01.328Z,33.25
2019-05-14T12:09:28.371Z,34.33
2019-05-14T12:11:54.752Z,33.60
2019-05-14T12:14:21.000Z,33.88
2019-05-14T12:16:49.417Z,34.23
2019-05-14T12:19:15.434Z,33.82
2019-05-14T12:21:57.489Z,31.71
2019-05-14T12:24:13.712Z,32.61
2019-05-14T12:26:39.121Z,33.50
2019-05-14T12:29:05.357Z,32.54
2019-05-14T12:31:31.590Z,32.97
2019-05-14T12:33:58.376Z,33.80
2019-05-14T12:36:24.795Z,34.44
2019-05-14T12:38:51.052Z,33.80
2019-05-14T12:41:19.448Z,34.50
2019-05-14T12:43:45.478Z,33.57
2019-05-14T12:46:11.732Z,34.77
2019-05-14T12:48:38.990Z,35.40
2019-05-14T12:51:05.551Z,35.51
2019-05-14T12:53:31.817Z,35.41
2019-05-14T12:55:58.059Z,34.13
2019-05-14T12:58:24.320Z,33.07
2019-05-14T13:00:50.653Z,32.62
2019-05-14T13:03:19.046Z,33.30
2019-05-14T13:05:45.051Z,33.39
2019-05-14T13:08:11.592Z,32.89
2019-05-14T13:10:38.576Z,34.56
2019-05-14T13:13:05.178Z,35.09
2019-05-14T13:15:31.455Z,35.02
2019-05-14T13:17:57.742Z,34.14
2019-05-14T13:20:23.998Z,33.26
2019-05-14T13:22:50.590Z,33.36
2019-05-14T13:25:18.907Z,33.74
2019-05-14T13:27:45.129Z,34.11
2019-05-14T13:30:11.781Z,32.27
2019-05-14T13:32:39.332Z,33.63
2019-05-14T13:35:10.474Z,34.35
2019-05-14T13:37:35.021Z,34.53
2019-05-14T13:40:01.586Z,35.42
2019-05-14T13:42:29.560Z,34.95
2019-05-14T13:44:58.326Z,35.28
2019-05-14T13:47:24.228Z,35.83
2019-05-14T13:49:50.500Z,35.30
2019-05-14T13:52:18.735Z,35.50
2019-05-14T13:54:45.347Z,35.91
2019-05-14T13:57:12.294Z,36.10
2019-05-14T13:59:43.780Z,36.92
2019-05-14T14:02:09.601Z,37.55
2019-05-14T14:04:34.928Z,37.55
2019-05-14T14:07:01.184Z,36.89
2019-05-14T14:09:28.440Z,36.10
2019-05-14T14:11:55.605Z,36.89
2019-05-14T14:14:21.877Z,37.00
2019-05-14T14:16:48.915Z,37.31
2019-05-14T14:19:15.392Z,36.83
2019-05-14T14:21:41.676Z,38.04
2019-05-14T14:24:09.594Z,36.92
2019-05-14T14:26:39.067Z,37.44
2019-05-14T14:29:04.265Z,38.59
2019-05-14T14:31:30.508Z,38.70
2019-05-14T14:33:56.801Z,38.71
2019-05-14T14:36:23.087Z,37.78
2019-05-14T14:38:49.828Z,37.57
2019-05-14T14:41:19.054Z,37.46
2019-05-14T14:43:44.816Z,37.75
2019-05-14T14:46:14.055Z,37.24
2019-05-14T14:48:39.678Z,37.02
2019-05-14T14:51:08.470Z,36.82
2019-05-14T14:53:50.427Z,38.15
2019-05-14T14:56:02.481Z,38.82
2019-05-14T14:58:28.758Z,38.46
2019-05-14T15:00:54.997Z,38.47
2019-05-14T15:03:21.510Z,38.80
2019-05-14T15:05:49.848Z,39.42
2019-05-14T15:08:15.941Z,39.64
2019-05-14T15:10:42.173Z,40.85
2019-05-14T15:13:09.327Z,40.90
2019-05-14T15:15:35.889Z,41.70
2019-05-14T15:18:02.145Z,41.53
2019-05-14T15:20:28.924Z,41.90
2019-05-14T15:22:55.453Z,41.74
2019-05-14T15:25:21.683Z,42.54
2019-05-14T15:27:50.099Z,42.07
2019-05-14T15:30:16.339Z,41.97
2019-05-14T15:32:42.613Z,42.39
2019-05-14T15:35:10.831Z,39.70
2019-05-14T15:37:42.134Z,40.35
2019-05-14T15:40:06.101Z,38.90
2019-05-14T15:42:32.343Z,38.95
2019-05-14T15:44:59.774Z,38.39
2019-05-14T15:47:26.323Z,38.99
2019-05-14T15:49:52.597Z,39.40
2019-05-14T15:52:19.414Z,39.34
2019-05-14T15:54:49.699Z,39.38
2019-05-14T15:57:14.011Z,38.56
2019-05-14T15:59:40.254Z,38.60
2019-05-14T16:02:09.464Z,39.42
2019-05-14T16:04:34.659Z,38.00
2019-05-14T16:07:00.893Z,37.83
2019-05-14T16:09:28.886Z,39.41
2019-05-14T16:11:55.311Z,38.96
2019-05-14T16:14:21.563Z,37.93
2019-05-14T16:16:50.575Z,38.59
2019-05-14T16:19:19.043Z,38.85
2019-05-14T16:21:44.972Z,38.51
2019-05-14T16:24:11.206Z,38.90
2019-05-14T16:26:37.514Z,38.95
2019-05-14T16:29:03.945Z,39.31
2019-05-14T16:31:31.645Z,39.43
2019-05-14T16:33:58.164Z,39.93
2019-05-14T16:36:24.423Z,39.61
2019-05-14T16:38:50.667Z,40.36
2019-05-14T16:41:18.425Z,41.07
2019-05-14T16:43:49.181Z,41.29
2019-05-14T16:46:14.850Z,40.41
2019-05-14T16:48:41.100Z,40.72
2019-05-14T16:51:08.968Z,40.45
2019-05-14T16:53:37.843Z,41.07
2019-05-14T16:56:04.098Z,41.67
2019-05-14T16:58:30.332Z,41.50
2019-05-14T17:00:58.712Z,42.21
2019-05-14T17:03:24.719Z,42.36
2019-05-14T17:05:50.978Z,42.58
2019-05-14T17:08:19.106Z,42.34
2019-05-14T17:10:45.340Z,42.75
2019-05-14T17:13:11.627Z,42.75
2019-05-14T17:15:39.381Z,44.30
2019-05-14T17:18:08.642Z,44.74
2019-05-14T17:20:33.960Z,44.63
2019-05-14T17:23:00.219Z,45.54
2019-05-14T17:25:30.057Z,45.68
2019-05-14T17:27:54.598Z,45.85
2019-05-14T17:30:20.840Z,46.65
2019-05-14T17:32:49.410Z,46.02
2019-05-14T17:35:15.209Z,46.66
2019-05-14T17:37:41.452Z,46.35
2019-05-14T17:40:09.441Z,46.60
2019-05-14T17:42:36.056Z,46.77
2019-05-14T17:45:05.528Z,47.40
2019-05-14T17:47:31.782Z,47.93
2019-05-14T17:50:01.292Z,47.59
2019-05-14T17:52:30.097Z,47.37
2019-05-14T17:54:55.675Z,48.20
2019-05-14T17:57:24.821Z,48.61
2019-05-14T17:59:50.068Z,48.05
2019-05-14T18:02:18.938Z,48.71
2019-05-14T18:04:44.491Z,49.59
2019-05-14T18:07:10.734Z,49.71
2019-05-14T18:09:36.987Z,49.25
2019-05-14T18:12:03.224Z,49.46
2019-05-14T18:14:29.453Z,49.01
2019-05-14T18:16:58.300Z,50.31
2019-05-14T18:19:23.844Z,50.21
2019-05-14T18:21:50.087Z,50.36
2019-05-14T18:24:18.764Z,50.51
2019-05-14T18:26:44.490Z,50.97
2019-05-14T18:29:10.733Z,51.04
2019-05-14T18:31:43.235Z,51.51
2019-05-14T18:34:05.142Z,51.86
2019-05-14T18:36:31.383Z,52.45
2019-05-14T18:38:58.559Z,52.67
2019-05-14T18:41:25.071Z,52.92
2019-05-14T18:43:51.352Z,53.16
2019-05-14T18:46:19.187Z,53.01
2019-05-14T18:48:48.430Z,53.58
2019-05-14T18:51:13.870Z,54.08
2019-05-14T18:53:40.101Z,54.08
2019-05-14T18:56:19.676Z,54.34
2019-05-14T18:58:34.497Z,54.81
2019-05-14T19:01:02.568Z,55.54
2019-05-14T19:03:28.803Z,55.83
2019-05-14T19:05:55.042Z,55.84
2019-05-14T19:08:21.276Z,56.29
2019-05-14T19:10:49.555Z,57.05
2019-05-14T19:13:15.658Z,57.42
2019-05-14T19:15:41.899Z,57.52
2019-05-14T19:18:09.109Z,57.95
2019-05-14T19:20:35.590Z,58.50
2019-05-14T19:23:01.835Z,58.82
2019-05-14T19:25:28.078Z,58.63
2019-05-14T19:27:54.331Z,59.49
2019-05-14T19:30:20.585Z,59.76
2019-05-14T19:32:48.567Z,59.69
2019-05-14T19:35:14.999Z,60.08
2019-05-14T19:37:41.214Z,60.37
2019-05-14T19:40:09.227Z,60.56
2019-05-14T19:42:35.803Z,60.78
2019-05-14T19:45:02.142Z,60.55
2019-05-14T19:47:28.395Z,60.40
2019-05-14T19:49:54.622Z,60.73
2019-05-14T19:52:20.872Z,61.27
2019-05-14T19:54:48.901Z,61.65
2019-05-14T19:57:15.259Z,62.21
2019-05-14T19:59:41.491Z,62.18
2019-05-14T20:02:09.526Z,62.29
2019-05-14T20:04:35.923Z,62.73
2019-05-14T20:07:02.171Z,63.23
2019-05-14T20:09:28.392Z,63.55
2019-05-14T20:11:54.623Z,63.80
2019-05-14T20:14:20.866Z,64.71
2019-05-14T20:16:49.149Z,65.22
2019-05-14T20:19:15.257Z,65.54
2019-05-14T20:21:41.525Z,65.20
2019-05-14T20:24:07.770Z,65.34
2019-05-14T20:26:34.012Z,65.44
2019-05-14T20:29:00.260Z,66.07
2019-05-14T20:31:26.490Z,66.48
2019-05-14T20:33:52.736Z,67.62
2019-05-14T20:36:19.027Z,67.47
2019-05-14T20:38:45.311Z,67.71
2019-05-14T20:41:11.550Z,67.98
2019-05-14T20:43:38.503Z,68.87
2019-05-14T20:46:04.931Z,69.23
2019-05-14T20:48:31.170Z,69.28
2019-05-14T20:50:58.438Z,69.29
2019-05-14T20:53:24.774Z,69.64
2019-05-14T20:55:51.007Z,69.94
2019-05-14T20:58:19.853Z,70.59
2019-05-14T21:00:45.431Z,70.78
2019-05-14T21:03:11.657Z,71.76
2019-05-14T21:05:38.929Z,72.10
2019-05-14T21:08:06.174Z,72.18
2019-05-14T21:10:32.415Z,72.00
2019-05-14T21:12:58.764Z,72.00
2019-05-14T21:15:24.987Z,72.47
2019-05-14T21:17:51.213Z,72.24
2019-05-14T21:20:18.462Z,73.21
2019-05-14T21:22:44.684Z,73.85
2019-05-14T21:25:12.683Z,73.57
2019-05-14T21:27:47.883Z,73.82
2019-05-14T21:30:09.265Z,74.59
2019-05-14T21:32:35.659Z,74.84
2019-05-14T21:35:02.090Z,75.32
2019-05-14T21:37:28.500Z,74.47
2019-05-14T21:39:54.659Z,74.16
2019-05-14T21:42:20.788Z,74.64
2019-05-14T21:44:48.360Z,74.64
2019-05-14T21:47:15.162Z,75.90
2019-05-14T21:49:41.312Z,75.45
2019-05-14T21:52:09.068Z,75.54
2019-05-14T21:54:35.403Z,75.37
2019-05-14T21:57:02.156Z,75.96
2019-05-14T21:59:28.385Z,76.10
2019-05-14T22:01:54.628Z,76.53
2019-05-14T22:04:20.884Z,76.77
2019-05-14T22:06:49.000Z,76.52
2019-05-14T22:09:15.120Z,76.21
2019-05-14T22:11:41.369Z,77.24
2019-05-14T22:14:08.015Z,77.44
2019-05-14T22:16:37.907Z,77.17
2019-05-14T22:19:03.849Z,76.73
2019-05-14T22:21:30.087Z,77.44
2019-05-14T22:23:56.232Z,78.23
2019-05-14T22:26:22.470Z,77.41
2019-05-14T22:28:48.703Z,77.22
2019-05-14T22:31:17.099Z,77.62
2019-05-14T22:33:43.076Z,78.08
2019-05-14T22:36:09.328Z,78.63
2019-05-14T22:38:35.552Z,78.86
2019-05-14T22:41:01.797Z,78.53
2019-05-14T22:43:28.796Z,79.37
2019-05-14T22:45:55.174Z,79.37
2019-05-14T22:48:21.416Z,78.77
2019-05-14T22:50:48.628Z,80.04
2019-05-14T22:53:14.998Z,79.79
2019-05-14T22:55:41.226Z,79.83
2019-05-14T22:58:08.657Z,79.98
2019-05-14T23:00:35.629Z,81.34
2019-05-14T23:03:01.867Z,81.71
2019-05-14T23:05:28.966Z,83.16
2019-05-14T23:07:58.057Z,82.09
2019-05-14T23:10:23.689Z,81.47
2019-05-14T23:12:49.945Z,81.56
2019-05-14T23:15:18.186Z,82.37
2019-05-14T23:17:44.306Z,81.98
2019-05-14T23:20:10.635Z,81.58
2019-05-14T23:22:38.990Z,81.29
2019-05-14T23:25:08.726Z,81.65
2019-05-14T23:27:34.589Z,81.04
2019-05-14T23:30:00.825Z,81.58
2019-05-14T23:32:28.554Z,82.97
2019-05-14T23:34:54.913Z,83.37
2019-05-14T23:37:21.137Z,82.14
2019-05-14T23:39:49.055Z,83.61
2019-05-14T23:42:15.533Z,85.41
2019-05-14T23:44:42.091Z,83.89
2019-05-14T23:47:08.445Z,84.92
2019-05-14T23:49:34.672Z,83.36
2019-05-14T23:52:00.906Z,83.07
2019-05-14T23:54:29.132Z,84.69
2019-05-14T23:56:55.282Z,84.54
2019-05-14T23:59:21.533Z,83.26
